Time;durP1;ratioP1;P1;durP2;ratioP2;P2;SDS_P1;SDS_P2;PMS_P1;PMS_P2;Temp;Humidity;BMP_temperature;BMP_pressure;BME280_temperature;BME280_humidity;BME280_pressure;Samples;Min_cycle;Max_cycle;Signal;HPM_P1;HPM_P2
2023/11/27 00:00:00;;;;;;;19.48;6.53;;;3.90;99.90;;;;;;5034253;28;20029;-70
2023/11/27 00:02:26;;;;;;;18.30;7.43;;;3.90;99.90;;;;;;5024728;28;20622;-70
2023/11/27 00:04:51;;;;;;;14.63;5.57;;;3.90;99.90;;;;;;5018307;28;20120;-66
2023/11/27 00:07:17;;;;;;;16.55;6.57;;;3.90;99.90;;;;;;5034958;28;20056;-66
2023/11/27 00:09:42;;;;;;;19.80;6.05;;;3.90;99.90;;;;;;5017796;28;20033;-66
2023/11/27 00:12:08;;;;;;;12.35;5.03;;;3.90;99.90;;;;;;5034999;28;20033;-66
2023/11/27 00:14:36;;;;;;;8.50;3.45;;;4.00;99.90;;;;;;5034048;28;20602;-66
2023/11/27 00:17:02;;;;;;;14.98;6.15;;;3.90;99.90;;;;;;5035208;28;20052;-66
2023/11/27 00:19:28;;;;;;;15.02;4.18;;;4.00;99.90;;;;;;5035099;28;20412;-66
2023/11/27 00:21:53;;;;;;;14.18;4.55;;;3.90;99.90;;;;;;5032755;28;20097;-66
2023/11/27 00:24:19;;;;;;;12.50;5.28;;;3.90;99.90;;;;;;5034693;28;20029;-66
2023/11/27 00:26:44;;;;;;;14.80;4.40;;;3.90;99.90;;;;;;5034209;28;20044;-66
2023/11/27 00:29:10;;;;;;;11.48;4.55;;;3.90;99.90;;;;;;5032341;28;20022;-66
2023/11/27 00:31:36;;;;;;;16.30;4.93;;;3.90;99.90;;;;;;5031952;28;20552;-66
2023/11/27 00:34:01;;;;;;;9.57;3.60;;;3.90;99.90;;;;;;5008131;28;20053;-66
2023/11/27 00:36:27;;;;;;;15.40;4.32;;;3.90;99.90;;;;;;5038728;28;20420;-66
2023/11/27 00:38:53;;;;;;;11.73;4.55;;;3.90;99.90;;;;;;5035863;28;20041;-66
2023/11/27 00:41:18;;;;;;;18.05;5.30;;;3.90;99.90;;;;;;5022048;28;20033;-66
2023/11/27 00:43:44;;;;;;;13.32;3.63;;;3.90;99.90;;;;;;5036358;28;20041;-66
2023/11/27 00:46:11;;;;;;;9.68;4.25;;;3.90;99.90;;;;;;5036634;28;20083;-66
2023/11/27 00:48:37;;;;;;;11.38;4.47;;;3.90;99.90;;;;;;5039363;28;20029;-66
2023/11/27 00:51:06;;;;;;;17.17;3.28;;;3.90;99.90;;;;;;5037823;28;20025;-66
2023/11/27 00:53:32;;;;;;;12.18;4.22;;;3.90;99.90;;;;;;5010222;28;20034;-66
2023/11/27 00:55:58;;;;;;;15.18;5.65;;;3.90;99.90;;;;;;5020447;28;20064;-66
2023/11/27 00:58:24;;;;;;;20.38;4.20;;;3.90;99.90;;;;;;5041483;28;20273;-66
2023/11/27 01:00:51;;;;;;;14.15;4.97;;;3.90;99.90;;;;;;5020397;28;20603;-66
2023/11/27 01:03:17;;;;;;;16.67;5.10;;;3.90;99.90;;;;;;5040826;28;20084;-66
2023/11/27 01:05:43;;;;;;;13.70;5.15;;;3.90;99.90;;;;;;5041394;28;20420;-66
2023/11/27 01:08:08;;;;;;;15.88;5.90;;;3.90;99.90;;;;;;5041205;28;20028;-66
2023/11/27 01:10:34;;;;;;;14.80;5.30;;;3.90;99.90;;;;;;5041951;28;20042;-66
2023/11/27 01:12:59;;;;;;;15.40;5.43;;;3.90;99.90;;;;;;5042341;28;20098;-66
2023/11/27 01:15:25;;;;;;;16.27;6.00;;;3.90;99.90;;;;;;5044401;28;20029;-70
2023/11/27 01:17:50;;;;;;;13.32;5.22;;;3.80;99.90;;;;;;5044194;28;20021;-70
2023/11/27 01:20:16;;;;;;;11.30;5.00;;;3.80;99.90;;;;;;5023849;28;20021;-69
2023/11/27 01:22:42;;;;;;;15.27;6.07;;;3.80;99.90;;;;;;5042042;28;20369;-69
2023/11/27 01:25:08;;;;;;;10.73;4.03;;;3.80;99.90;;;;;;5041697;28;20092;-69
2023/11/27 01:27:34;;;;;;;11.90;5.20;;;3.80;99.90;;;;;;5041602;28;20481;-69
2023/11/27 01:30:01;;;;;;;12.23;4.63;;;3.80;99.90;;;;;;5035256;28;20048;-69
2023/11/27 01:32:27;;;;;;;17.10;5.75;;;3.80;99.90;;;;;;5024029;28;20468;-69
2023/11/27 01:34:53;;;;;;;14.15;5.50;;;3.80;99.90;;;;;;5037958;28;20043;-69
2023/11/27 01:37:21;;;;;;;12.23;5.28;;;3.80;99.90;;;;;;5041398;28;20071;-71
2023/11/27 01:39:47;;;;;;;13.55;5.07;;;3.80;99.90;;;;;;5041308;28;20035;-70
2023/11/27 01:42:12;;;;;;;18.33;5.30;;;3.80;99.90;;;;;;5041338;28;20021;-70
2023/11/27 01:44:38;;;;;;;13.20;5.60;;;3.80;99.90;;;;;;5022999;28;20021;-70
2023/11/27 01:47:05;;;;;;;17.95;5.65;;;3.70;99.90;;;;;;5040962;28;20025;-70
2023/11/27 01:49:34;;;;;;;15.15;4.97;;;3.70;99.90;;;;;;5040868;28;20469;-70
2023/11/27 01:52:00;;;;;;;12.77;5.13;;;3.70;99.90;;;;;;5042145;28;20025;-70
2023/11/27 01:54:28;;;;;;;11.50;4.70;;;3.70;99.90;;;;;;5022452;28;20029;-70
2023/11/27 01:56:55;;;;;;;18.13;5.93;;;3.60;99.90;;;;;;5041035;28;20021;-70
2023/11/27 01:59:24;;;;;;;16.30;5.28;;;3.60;99.90;;;;;;5037975;28;20033;-70
2023/11/27 02:01:50;;;;;;;17.10;6.17;;;3.60;99.90;;;;;;5014210;28;20034;-70
2023/11/27 02:04:16;;;;;;;14.48;6.05;;;3.60;99.90;;;;;;5042773;28;20461;-70
2023/11/27 02:06:41;;;;;;;14.68;6.13;;;3.50;99.90;;;;;;5021473;28;20044;-71
2023/11/27 02:09:08;;;;;;;18.17;4.85;;;3.50;99.90;;;;;;5035026;28;20026;-70
2023/11/27 02:11:53;;;;;;;15.13;6.97;;;3.50;99.90;;;;;;5043037;28;20021;-70
2023/11/27 02:14:21;;;;;;;17.83;6.18;;;3.50;99.90;;;;;;5040908;28;20477;-70
2023/11/27 02:16:48;;;;;;;15.13;6.28;;;3.40;99.90;;;;;;5042574;28;20024;-71
2023/11/27 02:19:14;;;;;;;15.65;6.07;;;3.40;99.90;;;;;;5039269;28;20532;-70
2023/11/27 02:21:40;;;;;;;16.45;7.05;;;3.40;99.90;;;;;;5042273;28;20025;-70
2023/11/27 02:24:06;;;;;;;17.02;6.43;;;3.40;99.90;;;;;;5039021;28;20033;-69
2023/11/27 02:26:32;;;;;;;13.90;5.35;;;3.40;99.90;;;;;;5024423;28;20025;-69
2023/11/27 02:28:58;;;;;;;13.23;5.97;;;3.40;99.90;;;;;;5038850;28;20040;-69
2023/11/27 02:31:23;;;;;;;15.25;6.93;;;3.40;99.90;;;;;;5036685;28;20097;-69
2023/11/27 02:33:49;;;;;;;13.95;6.75;;;3.40;99.90;;;;;;5025280;28;20095;-69
2023/11/27 02:36:15;;;;;;;15.27;6.43;;;3.40;99.90;;;;;;5041513;28;20037;-69
2023/11/27 02:38:40;;;;;;;15.43;6.80;;;3.40;99.90;;;;;;5039141;28;20525;-69
2023/11/27 02:41:09;;;;;;;18.65;6.80;;;3.40;99.90;;;;;;5041380;28;20057;-69
2023/11/27 02:43:34;;;;;;;15.70;6.75;;;3.40;99.90;;;;;;5020779;28;20025;-69
2023/11/27 02:46:03;;;;;;;17.65;6.55;;;3.40;99.90;;;;;;5041309;28;20024;-70
2023/11/27 02:48:29;;;;;;;19.50;7.28;;;3.40;99.90;;;;;;5034989;28;20025;-70
2023/11/27 02:50:54;;;;;;;18.33;7.40;;;3.40;99.90;;;;;;5042023;28;20029;-70
2023/11/27 02:53:22;;;;;;;19.30;7.47;;;3.30;99.90;;;;;;5038097;28;20025;-70
2023/11/27 02:55:47;;;;;;;13.70;5.05;;;3.30;99.90;;;;;;5042045;28;20029;-70
2023/11/27 02:58:13;;;;;;;18.02;8.15;;;3.40;99.90;;;;;;5041317;28;20438;-70
2023/11/27 03:00:41;;;;;;;20.27;7.60;;;3.30;99.90;;;;;;5037187;28;20108;-70
2023/11/27 03:03:07;;;;;;;16.45;6.05;;;3.40;99.90;;;;;;5040988;28;20040;-70
2023/11/27 03:05:32;;;;;;;18.40;7.10;;;3.40;99.90;;;;;;5038923;28;20377;-72
2023/11/27 03:07:58;;;;;;;13.88;6.15;;;3.30;99.90;;;;;;5023590;28;20087;-72
2023/11/27 03:10:23;;;;;;;17.38;6.68;;;3.30;99.90;;;;;;5020525;28;20079;-72
2023/11/27 03:12:50;;;;;;;16.85;6.75;;;3.30;99.90;;;;;;5041244;28;20544;-71
2023/11/27 03:15:18;;;;;;;14.88;6.28;;;3.30;99.90;;;;;;5041154;28;20487;-72
2023/11/27 03:17:43;;;;;;;19.13;7.03;;;3.30;99.90;;;;;;5041021;28;20044;-70
2023/11/27 03:20:12;;;;;;;14.70;5.88;;;3.30;99.90;;;;;;5020451;28;20056;-70
2023/11/27 03:22:39;;;;;;;21.13;8.18;;;3.30;99.90;;;;;;5040424;28;20456;-70
2023/11/27 03:25:05;;;;;;;18.38;7.03;;;3.30;99.90;;;;;;5038147;28;20032;-70
2023/11/27 03:27:32;;;;;;;18.77;8.50;;;3.30;99.90;;;;;;5039553;28;20028;-72
2023/11/27 03:29:57;;;;;;;21.92;8.50;;;3.30;99.90;;;;;;5033660;28;20028;-70
2023/11/27 03:32:23;;;;;;;16.83;7.32;;;3.30;99.90;;;;;;5039467;28;20029;-70
2023/11/27 03:34:48;;;;;;;17.65;7.80;;;3.30;99.90;;;;;;5039473;28;20053;-66
2023/11/27 03:37:14;;;;;;;16.45;7.10;;;3.30;99.90;;;;;;5034169;28;20141;-66
2023/11/27 03:39:40;;;;;;;20.35;7.82;;;3.30;99.90;;;;;;5038919;28;20034;-66
2023/11/27 03:42:06;;;;;;;20.60;8.15;;;3.30;99.90;;;;;;5039231;28;20024;-66
2023/11/27 03:44:31;;;;;;;18.05;7.28;;;3.40;99.90;;;;;;5037421;28;20021;-67
2023/11/27 03:46:59;;;;;;;16.08;7.43;;;3.30;99.90;;;;;;5038810;28;20106;-66
2023/11/27 03:49:25;;;;;;;19.75;7.32;;;3.30;99.90;;;;;;5038915;28;20028;-66
2023/11/27 03:51:50;;;;;;;17.60;7.28;;;3.30;99.90;;;;;;5039571;28;20504;-66
2023/11/27 03:54:16;;;;;;;17.60;7.72;;;3.30;99.90;;;;;;5039103;28;20029;-66
2023/11/27 03:56:42;;;;;;;25.00;8.90;;;3.30;99.90;;;;;;5039415;28;20068;-66
2023/11/27 03:59:08;;;;;;;15.32;7.00;;;3.30;99.90;;;;;;5019793;28;20583;-66
2023/11/27 04:01:33;;;;;;;19.33;8.00;;;3.30;99.90;;;;;;5035644;28;20036;-66
2023/11/27 04:03:59;;;;;;;21.95;8.68;;;3.30;99.90;;;;;;5020552;28;20018;-66
2023/11/27 04:06:30;;;;;;;17.42;7.25;;;3.30;99.90;;;;;;5038835;28;20072;-66
2023/11/27 04:08:56;;;;;;;20.77;7.60;;;3.20;99.90;;;;;;5039947;28;20033;-66
2023/11/27 04:11:27;;;;;;;18.83;7.32;;;3.20;99.90;;;;;;5040500;28;20078;-66
2023/11/27 04:13:56;;;;;;;17.13;7.75;;;3.30;99.90;;;;;;5042720;28;20153;-66
2023/11/27 04:16:22;;;;;;;22.05;8.35;;;3.30;99.90;;;;;;5044492;28;20029;-66
2023/11/27 04:18:48;;;;;;;19.25;8.65;;;3.30;99.90;;;;;;5023671;28;20492;-66
2023/11/27 04:21:17;;;;;;;23.85;8.43;;;3.30;99.90;;;;;;5044583;28;20551;-66
2023/11/27 04:23:48;;;;;;;19.65;9.85;;;3.30;99.90;;;;;;5000107;28;20025;-67
2023/11/27 04:26:15;;;;;;;23.95;9.25;;;3.30;99.90;;;;;;5044628;28;20017;-67
2023/11/27 04:28:41;;;;;;;21.95;8.57;;;3.30;99.90;;;;;;5027156;28;20037;-68
2023/11/27 04:31:08;;;;;;;21.13;8.93;;;3.30;99.90;;;;;;5042037;28;20030;-68
2023/11/27 04:33:34;;;;;;;28.23;9.88;;;3.30;99.90;;;;;;5043425;28;20052;-66
2023/11/27 04:36:00;;;;;;;20.65;10.00;;;3.30;99.90;;;;;;5024613;28;20397;-67
2023/11/27 04:38:26;;;;;;;21.25;9.52;;;3.30;99.90;;;;;;5025170;28;20029;-66
2023/11/27 04:40:54;;;;;;;22.25;9.65;;;3.20;99.90;;;;;;5042366;28;20075;-66
2023/11/27 04:43:22;;;;;;;22.48;10.63;;;3.20;99.90;;;;;;5042320;28;20094;-66
2023/11/27 04:45:48;;;;;;;24.52;10.23;;;3.30;99.90;;;;;;5042967;28;20469;-71
2023/11/27 04:48:13;;;;;;;19.80;9.57;;;3.30;99.90;;;;;;5041861;28;20059;-71
2023/11/27 04:50:39;;;;;;;24.27;9.20;;;3.30;99.90;;;;;;5026768;28;20029;-71
2023/11/27 04:53:04;;;;;;;20.98;7.80;;;3.30;99.90;;;;;;5042359;28;20033;-71
2023/11/27 04:55:30;;;;;;;29.13;8.70;;;3.20;99.90;;;;;;5042665;28;20029;-72
2023/11/27 04:57:56;;;;;;;16.90;6.93;;;3.20;99.90;;;;;;5042581;28;20025;-72
2023/11/27 05:00:22;;;;;;;22.90;8.82;;;3.20;99.90;;;;;;5040679;28;20033;-72
2023/11/27 05:02:47;;;;;;;20.35;7.93;;;3.20;99.90;;;;;;5042492;28;20338;-72
2023/11/27 05:05:16;;;;;;;21.42;8.73;;;3.20;99.90;;;;;;5010999;28;20030;-70
2023/11/27 05:07:42;;;;;;;21.38;8.90;;;3.20;99.90;;;;;;5018262;28;20661;-71
2023/11/27 05:10:08;;;;;;;25.60;9.20;;;3.20;99.90;;;;;;5040524;28;20033;-72
2023/11/27 05:12:36;;;;;;;19.45;7.45;;;3.20;99.90;;;;;;5036372;28;20052;-72
2023/11/27 05:15:03;;;;;;;22.25;8.95;;;3.20;99.90;;;;;;5038874;28;20025;-72
2023/11/27 05:17:29;;;;;;;20.67;8.63;;;3.20;99.90;;;;;;5023643;28;20036;-71
2023/11/27 05:19:54;;;;;;;23.70;9.27;;;3.20;99.90;;;;;;5039231;28;20039;-71
2023/11/27 05:22:21;;;;;;;17.40;7.20;;;3.20;99.90;;;;;;5032541;28;20641;-70
2023/11/27 05:24:54;;;;;;;20.42;9.60;;;3.10;99.90;;;;;;5024356;28;20026;-70
2023/11/27 05:27:19;;;;;;;21.30;9.57;;;3.10;99.90;;;;;;5035135;28;20034;-70
2023/11/27 05:29:45;;;;;;;22.65;9.40;;;3.10;99.90;;;;;;5015249;28;20530;-70
2023/11/27 05:32:10;;;;;;;20.15;9.35;;;3.10;99.90;;;;;;5037248;28;20071;-70
2023/11/27 05:34:37;;;;;;;20.88;9.10;;;3.00;99.90;;;;;;5036885;28;20725;-69
2023/11/27 05:37:06;;;;;;;20.65;8.90;;;3.10;99.90;;;;;;5011683;28;21412;-70
2023/11/27 05:39:32;;;;;;;19.25;8.85;;;3.10;99.90;;;;;;5030519;28;20021;-70
2023/11/27 05:41:57;;;;;;;21.52;8.38;;;3.00;99.90;;;;;;5014629;28;20040;-70
2023/11/27 05:44:24;;;;;;;22.25;9.52;;;3.00;99.90;;;;;;5026775;28;20041;-70
2023/11/27 05:46:49;;;;;;;22.63;9.40;;;3.00;99.90;;;;;;5028212;28;20457;-70
2023/11/27 05:49:15;;;;;;;27.95;8.98;;;3.00;99.90;;;;;;5036410;28;20032;-70
2023/11/27 05:51:41;;;;;;;22.60;8.45;;;3.00;99.90;;;;;;5018811;28;20385;-70
2023/11/27 05:54:09;;;;;;;17.20;7.05;;;3.00;99.90;;;;;;5029011;28;20022;-71
2023/11/27 05:56:34;;;;;;;23.60;8.65;;;3.00;99.90;;;;;;5028564;28;20024;-71
2023/11/27 05:59:00;;;;;;;20.42;8.15;;;3.00;99.90;;;;;;5032246;28;20033;-70
2023/11/27 06:01:26;;;;;;;20.95;8.95;;;3.00;99.90;;;;;;5029373;28;20032;-70
2023/11/27 06:03:51;;;;;;;19.08;8.75;;;3.00;99.90;;;;;;5037375;28;20466;-70
2023/11/27 06:06:17;;;;;;;24.50;9.20;;;3.00;99.90;;;;;;5033251;28;20021;-70
2023/11/27 06:08:43;;;;;;;19.88;8.98;;;3.00;99.90;;;;;;5039974;28;20029;-70
2023/11/27 06:11:09;;;;;;;24.23;8.52;;;3.00;99.90;;;;;;5030796;28;20392;-70
2023/11/27 06:13:34;;;;;;;22.95;8.45;;;2.90;99.90;;;;;;5032324;28;20061;-69
2023/11/27 06:16:00;;;;;;;21.88;9.07;;;2.90;99.90;;;;;;5032401;28;20032;-69
2023/11/27 06:18:25;;;;;;;18.80;7.82;;;3.00;99.90;;;;;;5037062;28;20033;-71
2023/11/27 06:20:51;;;;;;;18.77;7.80;;;3.00;99.90;;;;;;5031992;28;20037;-70
2023/11/27 06:23:17;;;;;;;17.77;7.07;;;3.00;99.90;;;;;;5037960;28;20024;-70
2023/11/27 06:25:43;;;;;;;15.40;5.97;;;3.00;99.90;;;;;;5035276;28;20072;-72
2023/11/27 06:28:13;;;;;;;22.13;8.38;;;3.00;99.90;;;;;;5037453;28;20029;-72
2023/11/27 06:30:41;;;;;;;16.88;6.53;;;3.00;99.90;;;;;;5019285;28;20029;-72
2023/11/27 06:33:07;;;;;;;20.50;7.32;;;3.00;99.90;;;;;;5035824;28;20076;-70
2023/11/27 06:35:32;;;;;;;21.38;7.63;;;3.00;99.90;;;;;;5038178;28;20560;-71
2023/11/27 06:37:58;;;;;;;16.05;6.72;;;3.00;99.90;;;;;;5017410;28;20033;-70
2023/11/27 06:40:24;;;;;;;21.90;7.22;;;2.90;99.90;;;;;;5039059;28;20079;-70
2023/11/27 06:42:50;;;;;;;16.73;7.78;;;2.90;99.90;;;;;;5024463;28;20032;-70
2023/11/27 06:45:16;;;;;;;18.25;7.75;;;3.00;99.90;;;;;;5027297;28;20029;-71
2023/11/27 06:47:42;;;;;;;17.65;6.97;;;3.00;99.90;;;;;;5036092;28;20083;-69
2023/11/27 06:50:07;;;;;;;21.45;7.80;;;3.00;99.90;;;;;;5029228;28;20030;-70
2023/11/27 06:52:33;;;;;;;19.77;7.75;;;2.90;99.90;;;;;;5030458;28;20025;-70
2023/11/27 06:54:59;;;;;;;19.00;8.45;;;3.00;99.90;;;;;;5033379;28;20550;-71
2023/11/27 06:57:25;;;;;;;21.25;7.05;;;3.00;99.90;;;;;;5025360;28;20075;-71
2023/11/27 06:59:50;;;;;;;18.52;7.55;;;3.00;99.90;;;;;;5036219;28;20033;-71
2023/11/27 07:02:16;;;;;;;20.30;8.60;;;3.00;99.90;;;;;;5028221;28;20380;-71
2023/11/27 07:04:42;;;;;;;19.00;7.50;;;3.00;99.90;;;;;;5027825;28;20028;-68
2023/11/27 07:07:09;;;;;;;16.23;5.68;;;3.00;99.90;;;;;;5029000;28;20053;-68
2023/11/27 07:09:34;;;;;;;13.35;5.68;;;3.00;99.90;;;;;;5031384;28;20101;-68
2023/11/27 07:12:00;;;;;;;17.65;7.07;;;3.00;99.90;;;;;;5031871;28;20115;-68
2023/11/27 07:14:26;;;;;;;15.00;6.85;;;2.90;99.90;;;;;;5029973;28;20492;-68
2023/11/27 07:16:52;;;;;;;22.65;8.07;;;2.90;99.90;;;;;;5035356;28;20449;-68
2023/11/27 07:19:17;;;;;;;14.75;6.03;;;2.90;99.90;;;;;;5016613;28;20113;-68
2023/11/27 07:21:43;;;;;;;17.63;6.80;;;2.90;99.90;;;;;;5027527;28;20032;-68
2023/11/27 07:24:09;;;;;;;15.13;6.65;;;2.90;99.90;;;;;;5034729;28;20021;-68
2023/11/27 07:26:34;;;;;;;18.38;6.15;;;2.90;99.90;;;;;;5038867;28;20496;-67
2023/11/27 07:29:03;;;;;;;18.15;7.88;;;2.90;99.90;;;;;;5038025;28;20099;-67
2023/11/27 07:31:31;;;;;;;10.32;4.90;;;2.80;99.90;;;;;;5034113;28;20029;-67
2023/11/27 07:33:57;;;;;;;23.02;8.25;;;2.80;99.90;;;;;;5040213;28;20036;-67
2023/11/27 07:36:22;;;;;;;20.23;7.90;;;2.90;99.90;;;;;;5036110;28;20024;-67
2023/11/27 07:38:51;;;;;;;20.88;7.80;;;2.80;99.90;;;;;;5029022;28;20026;-67
2023/11/27 07:41:17;;;;;;;18.10;7.43;;;2.80;99.90;;;;;;5034387;28;20451;-67
2023/11/27 07:43:42;;;;;;;17.45;8.55;;;2.80;99.90;;;;;;5033894;28;20025;-68
2023/11/27 07:46:12;;;;;;;14.82;6.45;;;2.80;99.90;;;;;;5036184;28;20021;-68
2023/11/27 07:48:38;;;;;;;18.10;6.25;;;2.80;99.90;;;;;;5033657;28;20035;-68
2023/11/27 07:51:05;;;;;;;16.73;6.50;;;2.80;99.90;;;;;;5034844;28;20560;-67
2023/11/27 07:53:30;;;;;;;14.77;6.85;;;2.80;99.90;;;;;;5036657;28;20091;-67
2023/11/27 07:55:56;;;;;;;16.48;6.68;;;2.80;99.90;;;;;;5037115;28;20432;-67
2023/11/27 07:58:22;;;;;;;15.00;5.90;;;2.80;99.90;;;;;;5033531;28;20026;-67
2023/11/27 08:00:47;;;;;;;12.43;4.63;;;2.80;99.90;;;;;;5028910;28;20030;-67
2023/11/27 08:03:13;;;;;;;13.80;4.88;;;2.80;99.90;;;;;;5035077;28;20037;-68
2023/11/27 08:05:38;;;;;;;17.67;7.47;;;2.70;99.90;;;;;;5037094;28;20032;-68
2023/11/27 08:08:05;;;;;;;20.77;6.55;;;2.70;99.90;;;;;;5032039;28;20109;-68
2023/11/27 08:10:30;;;;;;;16.63;6.90;;;2.70;99.90;;;;;;5036903;28;20052;-68
2023/11/27 08:12:58;;;;;;;18.23;7.45;;;2.70;99.90;;;;;;5033179;28;20487;-68
2023/11/27 08:15:26;;;;;;;26.10;7.25;;;2.70;99.90;;;;;;5032229;28;20033;-68
2023/11/27 08:17:55;;;;;;;20.05;7.63;;;2.70;99.90;;;;;;5014952;28;20026;-68
2023/11/27 08:20:27;;;;;;;15.90;6.53;;;2.60;99.90;;;;;;5036945;28;20025;-68
2023/11/27 08:22:57;;;;;;;21.60;8.32;;;2.60;99.90;;;;;;5015316;28;20462;-68
2023/11/27 08:25:24;;;;;;;16.98;8.70;;;2.60;99.90;;;;;;5034850;28;20018;-68
2023/11/27 08:27:52;;;;;;;13.00;4.57;;;2.60;99.90;;;;;;5016929;28;20025;-68
2023/11/27 08:30:20;;;;;;;20.67;8.68;;;2.60;99.90;;;;;;5029075;28;20021;-68
2023/11/27 08:32:49;;;;;;;20.73;8.48;;;2.70;99.90;;;;;;5033533;28;20025;-66
2023/11/27 08:35:15;;;;;;;17.80;7.35;;;2.60;99.90;;;;;;5036277;28;20038;-68
2023/11/27 08:37:40;;;;;;;17.67;7.18;;;2.60;99.90;;;;;;5018762;28;20484;-68
2023/11/27 08:40:09;;;;;;;16.08;6.88;;;2.60;99.90;;;;;;5018108;28;20037;-68
2023/11/27 08:42:40;;;;;;;15.77;6.80;;;2.60;99.90;;;;;;5015139;28;20162;-68
2023/11/27 08:45:10;;;;;;;14.25;6.40;;;2.70;99.90;;;;;;5033003;28;20087;-68
2023/11/27 08:47:38;;;;;;;15.43;5.40;;;2.70;99.90;;;;;;5033169;28;20036;-68
2023/11/27 08:50:05;;;;;;;12.82;5.70;;;2.70;99.90;;;;;;5036862;28;20078;-68
2023/11/27 08:52:31;;;;;;;13.43;5.30;;;2.70;99.90;;;;;;5033114;28;20021;-68
2023/11/27 08:54:57;;;;;;;11.68;4.65;;;2.70;99.90;;;;;;5016714;28;20030;-68
2023/11/27 08:57:23;;;;;;;12.98;6.13;;;2.70;99.90;;;;;;5036660;28;20022;-68
2023/11/27 08:59:51;;;;;;;11.63;5.40;;;2.70;99.90;;;;;;5022348;28;20092;-68
2023/11/27 09:02:17;;;;;;;20.08;4.97;;;2.70;99.90;;;;;;5043645;28;20473;-68
2023/11/27 09:04:43;;;;;;;11.00;5.00;;;2.70;99.90;;;;;;5037904;28;20037;-68
2023/11/27 09:07:11;;;;;;;9.55;3.72;;;2.80;99.90;;;;;;5038092;28;20120;-68
2023/11/27 09:09:37;;;;;;;11.52;4.63;;;2.70;99.90;;;;;;5037777;28;20045;-68
2023/11/27 09:12:03;;;;;;;9.90;4.50;;;2.80;99.90;;;;;;5038518;28;20037;-68
2023/11/27 09:14:29;;;;;;;10.95;4.18;;;2.70;99.90;;;;;;5034394;28;20516;-68
2023/11/27 09:16:54;;;;;;;13.55;4.63;;;2.70;99.90;;;;;;5022243;28;20056;-68
2023/11/27 09:19:22;;;;;;;17.65;5.03;;;2.70;99.90;;;;;;5039245;28;20129;-68
2023/11/27 09:21:47;;;;;;;12.38;4.72;;;2.70;99.90;;;;;;5035488;28;20033;-68
2023/11/27 09:24:14;;;;;;;8.57;3.13;;;2.70;99.90;;;;;;5035386;28;20021;-69
2023/11/27 09:26:39;;;;;;;7.75;2.80;;;2.60;99.90;;;;;;5019632;28;20036;-68
2023/11/27 09:29:05;;;;;;;8.02;3.13;;;2.50;99.90;;;;;;5039468;28;20033;-68
2023/11/27 09:31:30;;;;;;;8.23;3.45;;;2.50;99.90;;;;;;5039893;28;20036;-68
2023/11/27 09:33:56;;;;;;;6.85;3.03;;;2.50;99.90;;;;;;5013483;28;20037;-68
2023/11/27 09:36:22;;;;;;;6.30;2.63;;;2.40;99.90;;;;;;5038982;28;20038;-68
2023/11/27 09:38:49;;;;;;;8.18;2.70;;;2.40;99.90;;;;;;5035414;28;20040;-68
2023/11/27 09:41:16;;;;;;;6.80;2.72;;;2.30;99.90;;;;;;5037601;28;20118;-68
2023/11/27 09:43:42;;;;;;;6.30;2.30;;;2.30;99.90;;;;;;5036374;28;20018;-68
2023/11/27 09:46:14;;;;;;;6.03;2.30;;;2.30;99.90;;;;;;5017775;28;20032;-66
2023/11/27 09:48:40;;;;;;;6.13;2.55;;;2.20;99.90;;;;;;5040678;28;20060;-66
2023/11/27 09:51:11;;;;;;;5.50;1.73;;;2.10;99.90;;;;;;5027485;28;20033;-66
2023/11/27 09:53:42;;;;;;;5.18;2.00;;;2.10;99.90;;;;;;5013964;28;20025;-66
2023/11/27 09:56:09;;;;;;;5.45;2.03;;;2.00;99.90;;;;;;5018771;28;20056;-66
2023/11/27 09:58:42;;;;;;;5.68;2.17;;;2.00;99.90;;;;;;5017083;28;20036;-66
2023/11/27 10:01:12;;;;;;;5.70;2.15;;;1.90;99.90;;;;;;5004732;28;20087;-66
2023/11/27 10:03:42;;;;;;;5.85;2.10;;;1.90;99.90;;;;;;5021142;28;20033;-66
2023/11/27 10:06:09;;;;;;;5.40;1.88;;;1.90;99.90;;;;;;5036526;28;20022;-66
2023/11/27 10:08:35;;;;;;;5.15;1.80;;;1.80;99.90;;;;;;5038276;28;20075;-66
2023/11/27 10:11:01;;;;;;;5.38;1.83;;;1.70;99.90;;;;;;5033371;28;20037;-66
2023/11/27 10:13:34;;;;;;;3.75;1.55;;;1.70;99.90;;;;;;5034254;28;20055;-66
2023/11/27 10:16:04;;;;;;;5.95;2.10;;;1.70;99.90;;;;;;5036861;28;20079;-66
2023/11/27 10:18:30;;;;;;;3.05;1.00;;;1.70;99.90;;;;;;5036094;28;20056;-66
2023/11/27 10:20:55;;;;;;;4.30;1.60;;;1.60;99.90;;;;;;5040523;28;20127;-66
2023/11/27 10:23:22;;;;;;;4.63;1.77;;;1.70;99.90;;;;;;5037799;28;20045;-66
2023/11/27 10:25:57;;;;;;;3.85;1.38;;;1.70;99.90;;;;;;5036976;28;20025;-66
2023/11/27 10:28:23;;;;;;;4.28;1.40;;;1.70;99.90;;;;;;5033878;28;20020;-66
2023/11/27 10:30:49;;;;;;;3.17;1.30;;;1.70;99.90;;;;;;5038298;28;20112;-66
2023/11/27 10:33:15;;;;;;;3.42;1.50;;;1.70;99.90;;;;;;5021004;28;20024;-66
2023/11/27 10:35:43;;;;;;;3.60;1.45;;;1.70;99.90;;;;;;5017561;28;20095;-69
2023/11/27 10:38:16;;;;;;;3.65;1.50;;;1.70;99.90;;;;;;5037255;28;20029;-69
2023/11/27 10:40:43;;;;;;;3.35;1.38;;;1.70;99.90;;;;;;5031598;28;20083;-69
2023/11/27 10:43:11;;;;;;;4.60;1.52;;;1.70;99.90;;;;;;5038353;28;20531;-69
2023/11/27 10:45:38;;;;;;;4.43;1.50;;;1.70;99.90;;;;;;5020382;28;20018;-69
2023/11/27 10:48:06;;;;;;;4.72;1.35;;;1.80;99.90;;;;;;5017306;28;20024;-69
2023/11/27 10:50:33;;;;;;;6.88;2.22;;;1.80;99.90;;;;;;5032212;28;20029;-69
2023/11/27 10:52:58;;;;;;;4.80;1.80;;;1.80;99.90;;;;;;5034887;28;20031;-69
2023/11/27 10:55:26;;;;;;;4.60;1.70;;;1.80;99.90;;;;;;5035218;28;20026;-69
2023/11/27 10:57:54;;;;;;;2.45;1.20;;;1.80;99.90;;;;;;5019192;28;20033;-69
2023/11/27 11:00:57;;;;;;;3.67;1.27;;;1.80;99.90;;;;;;5018198;28;20229;-71
2023/11/27 11:03:14;;;;;;;4.05;1.33;;;1.80;99.90;;;;;;5032448;28;20136;-69
2023/11/27 11:05:50;;;;;;;4.03;1.45;;;1.80;99.90;;;;;;5034803;28;20469;-69
2023/11/27 11:08:26;;;;;;;3.80;1.50;;;1.80;99.90;;;;;;5037551;28;20393;-69
2023/11/27 11:10:57;;;;;;;2.10;1.13;;;1.90;99.90;;;;;;5034472;28;20025;-70
2023/11/27 11:13:27;;;;;;;4.25;1.40;;;1.90;99.90;;;;;;5033612;28;20053;-71
2023/11/27 11:16:18;;;;;;;4.03;1.42;;;1.90;99.90;;;;;;5039895;28;20035;-71
2023/11/27 11:18:57;;;;;;;5.30;1.52;;;1.90;99.90;;;;;;5036172;28;20036;-71
2023/11/27 11:21:39;;;;;;;2.28;1.13;;;2.00;99.90;;;;;;5032412;28;20030;-71
2023/11/27 11:24:37;;;;;;;2.58;1.30;;;2.00;99.90;;;;;;5034204;28;20025;-71
2023/11/27 11:27:34;;;;;;;2.90;1.20;;;2.00;99.90;;;;;;5016748;28;20497;-71
2023/11/27 11:30:04;;;;;;;6.25;1.23;;;2.00;99.90;;;;;;5006550;28;20025;-71
2023/11/27 11:32:30;;;;;;;6.10;1.60;;;2.00;99.90;;;;;;5034274;28;20350;-71
2023/11/27 11:34:59;;;;;;;4.40;1.38;;;2.00;99.90;;;;;;5032805;28;20087;-71
2023/11/27 11:37:25;;;;;;;3.22;1.27;;;2.00;99.90;;;;;;5038442;28;20777;-71
2023/11/27 11:39:53;;;;;;;2.58;1.25;;;2.00;99.90;;;;;;5015891;28;20025;-70
2023/11/27 11:42:25;;;;;;;4.43;1.70;;;2.00;99.90;;;;;;5022666;28;20030;-71
2023/11/27 11:45:27;;;;;;;3.00;1.23;;;2.00;99.90;;;;;;5035473;28;20059;-70
2023/11/27 11:48:00;;;;;;;4.30;1.60;;;2.00;99.90;;;;;;5039803;28;20028;-71
2023/11/27 11:50:30;;;;;;;3.35;1.30;;;1.90;99.90;;;;;;5027551;28;20466;-72
2023/11/27 11:53:21;;;;;;;3.57;1.37;;;2.00;99.90;;;;;;5011357;28;20030;-72
2023/11/27 11:55:57;;;;;;;3.25;1.38;;;2.00;99.90;;;;;;5012803;28;20045;-72
2023/11/27 11:58:22;;;;;;;3.40;1.20;;;2.00;99.90;;;;;;5023145;28;20061;-72
2023/11/27 12:00:50;;;;;;;2.60;1.10;;;1.90;99.90;;;;;;5025233;28;20044;-72
2023/11/27 12:03:18;;;;;;;4.25;1.40;;;1.90;99.90;;;;;;5029129;28;20547;-72
2023/11/27 12:05:51;;;;;;;3.28;1.20;;;1.90;99.90;;;;;;5037792;28;20056;-72
2023/11/27 12:08:24;;;;;;;3.95;1.38;;;1.90;99.90;;;;;;5008526;28;20068;-72
2023/11/27 12:10:53;;;;;;;2.80;1.25;;;1.90;99.90;;;;;;5016466;28;20556;-72
2023/11/27 12:13:23;;;;;;;4.37;1.50;;;1.90;99.90;;;;;;5033214;28;20060;-72
2023/11/27 12:15:50;;;;;;;3.50;1.40;;;1.90;99.90;;;;;;5016759;28;20116;-72
2023/11/27 12:18:19;;;;;;;3.00;1.30;;;1.90;99.90;;;;;;5028147;28;20069;-72
2023/11/27 12:20:47;;;;;;;2.45;1.13;;;1.90;99.90;;;;;;5028303;28;20060;-71
2023/11/27 12:23:13;;;;;;;3.70;1.23;;;1.90;99.90;;;;;;5015913;28;20025;-72
2023/11/27 12:25:42;;;;;;;4.13;1.40;;;1.90;99.90;;;;;;5027237;28;20057;-72
2023/11/27 12:28:12;;;;;;;4.53;1.70;;;1.90;99.90;;;;;;5011238;28;20395;-71
2023/11/27 12:30:39;;;;;;;5.95;1.77;;;1.90;99.90;;;;;;5028630;28;20155;-72
2023/11/27 12:33:07;;;;;;;5.25;1.70;;;1.90;99.90;;;;;;5035868;28;20081;-72
2023/11/27 12:35:32;;;;;;;2.17;1.00;;;1.90;99.90;;;;;;5018849;28;20484;-72
2023/11/27 12:38:06;;;;;;;2.25;1.08;;;1.90;99.90;;;;;;5037823;28;20033;-72
2023/11/27 12:40:34;;;;;;;5.15;1.50;;;2.00;99.90;;;;;;5017491;28;20025;-72
2023/11/27 12:43:04;;;;;;;3.20;1.33;;;2.00;99.90;;;;;;5036595;28;20538;-72
2023/11/27 12:45:31;;;;;;;4.78;1.73;;;2.00;99.90;;;;;;5032563;28;20112;-72
2023/11/27 12:47:58;;;;;;;3.83;1.20;;;2.10;99.90;;;;;;5031198;28;20021;-72
2023/11/27 12:50:31;;;;;;;5.70;1.75;;;2.10;99.90;;;;;;5033954;28;20056;-72